AirNav   TITAN Aviation Fuels
 
 954 users online  

68CN Porter Ranch Airport
Kennedy Meadows, California, USA

GOING TO KENNEDY MEADOWS?


FAA INFORMATION EFFECTIVE 22 APRIL 2021

Location

FAA Identifier: 68CN
Lat/Long: 36-01-19.7990N 118-05-43.2850W
36-01.329983N 118-05.721417W
36.0221664,-118.0953569
(estimated)
Elevation: 6800 ft. / 2073 m (estimated)
Variation: 14E (1985)
From city: 10 miles NW of KENNEDY MEADOWS, CA
(OF LITTLELAKE.)
Time zone: UTC -7 (UTC -8 during Standard Time)
Zip code: 93527

Airport Operations

Airport use: Private use. Permission required prior to landing
Activation date: 12/1964
Control tower: no
ARTCC: LOS ANGELES CENTER
FSS: RIVERSIDE FLIGHT SERVICE STATION
Attendance: UNATNDD
Wind indicator: no
Segmented circle: no

Airport Services

Airframe service: NONE
Powerplant service: NONE

Runway Information

Runway 9/27

Dimensions: 2600 x 150 ft. / 792 x 46 m
Surface: dirt
RUNWAY 9  RUNWAY 27
Traffic pattern: leftleft
Obstructions: nonemountain, 1320 ft. from runway
500'.

Airport Ownership and Management from official FAA records

Ownership: Privately-owned
Owner: M. E. FOX
616 ALLEN STREET
RIDGECREST, CA 93555
Phone 619-375-8267

Additional Remarks

ARPT PRESENTLY SUITABLE FOR EMERGENCY USE ONLY.
FOR CD CTC JOSHUA APCH AT 661-277-3843.

Instrument Procedures

There are no published instrument procedures at 68CN.

Some nearby airports with instrument procedures:

KIYK - Inyokern Airport (25 nm SE)
KNID - China Lake Naval Air Weapons Station (Armitage Field) (28 nm SE)
KPTV - Porterville Municipal Airport (47 nm W)
L71 - California City Municipal Airport (52 nm S)
KMHV - Mojave Air and Space Port (58 nm S)
 
Loc | Ops | Rwys | IFR | FBO | Links
Com | Nav | Svcs | Stats | Notes
Area around 68CN (Porter Ranch Airport)
 
Road maps at: MapQuest Bing Google
 
Aerial photo
No photo
 
Sectional chart

 
Airport distance calculator
Flying to Porter Ranch Airport? Find the distance to fly.

From to 68CN

Sunrise and sunset
Times for 08-May-2021
 Local
(UTC-7)
 Zulu
(UTC)
Morning civil twilight05:2612:26
Sunrise05:5412:54
Sunset19:4402:44
Evening civil twilight20:1203:12

Current date and time
Zulu (UTC)  08-May-2021 23:57:59
Local (UTC-7)  08-May-2021 16:57:59
 
METAR
KNID 
30nm SE 
082256Z AUTO VRB04KT 10SM CLR 32/M09 A2987 RMK AO2 SLP099 T03171089 $
KPTV 
47nm W 
082256Z AUTO VRB06KT 10SM CLR 28/05 A2993 RMK AO2 SLP134 T02780050
TAF
NOTAMs
Click for the latest NOTAMs
NOTAMs are issued by the DoD/FAA and will open in a separate window not controlled by AirNav.

 

 
 

Would you like to see your business listed on this page?

 If your business provides an interesting product or service to pilots, flight crews, aircraft, or users of the Porter Ranch Airport, you should consider listing it here.  To start the listing process, click on the button below
 
Add a business
 

Other Pages about Porter Ranch Airport

Update a link
 
Copyright © AirNav, LLC. All rights reserved. Privacy Policy  Contact